sensor_id;sensor_type;location;lat;lon;timestamp;P1;durP1;ratioP1;P2;durP2;ratioP2
30466;SDS011;17258;52.560;13.046;2023-07-29T00:05:54;1.98;;;1.30;;
30466;SDS011;17258;52.560;13.046;2023-07-29T00:15:54;1.63;;;1.53;;
30466;SDS011;17258;52.560;13.046;2023-07-29T00:25:58;1.83;;;1.60;;
30466;SDS011;17258;52.560;13.046;2023-07-29T00:35:58;1.50;;;1.40;;
30466;SDS011;17258;52.560;13.046;2023-07-29T00:46:01;2.55;;;1.52;;
30466;SDS011;17258;52.560;13.046;2023-07-29T00:56:02;2.00;;;1.88;;
30466;SDS011;17258;52.560;13.046;2023-07-29T01:06:08;2.78;;;1.98;;
30466;SDS011;17258;52.560;13.046;2023-07-29T01:16:39;1.73;;;1.63;;
30466;SDS011;17258;52.560;13.046;2023-07-29T01:26:47;2.10;;;1.90;;
30466;SDS011;17258;52.560;13.046;2023-07-29T01:36:47;8.80;;;1.90;;
30466;SDS011;17258;52.560;13.046;2023-07-29T01:46:49;1.90;;;1.77;;
30466;SDS011;17258;52.560;13.046;2023-07-29T01:56:50;6.33;;;1.63;;
30466;SDS011;17258;52.560;13.046;2023-07-29T02:06:51;1.73;;;1.63;;
30466;SDS011;17258;52.560;13.046;2023-07-29T02:16:51;3.47;;;1.80;;
30466;SDS011;17258;52.560;13.046;2023-07-29T02:26:52;2.40;;;1.40;;
30466;SDS011;17258;52.560;13.046;2023-07-29T02:36:53;1.85;;;1.75;;
30466;SDS011;17258;52.560;13.046;2023-07-29T02:46:53;1.37;;;1.33;;
30466;SDS011;17258;52.560;13.046;2023-07-29T02:56:55;1.92;;;1.60;;
30466;SDS011;17258;52.560;13.046;2023-07-29T03:06:56;1.53;;;1.43;;
30466;SDS011;17258;52.560;13.046;2023-07-29T03:16:57;1.87;;;1.60;;
30466;SDS011;17258;52.560;13.046;2023-07-29T03:26:58;2.17;;;1.98;;
30466;SDS011;17258;52.560;13.046;2023-07-29T03:36:59;6.93;;;1.97;;
30466;SDS011;17258;52.560;13.046;2023-07-29T03:47:00;6.00;;;2.03;;
30466;SDS011;17258;52.560;13.046;2023-07-29T03:57:01;1.67;;;1.57;;
30466;SDS011;17258;52.560;13.046;2023-07-29T04:07:02;1.50;;;1.40;;
30466;SDS011;17258;52.560;13.046;2023-07-29T04:17:03;1.65;;;1.55;;
30466;SDS011;17258;52.560;13.046;2023-07-29T04:27:04;2.08;;;1.88;;
30466;SDS011;17258;52.560;13.046;2023-07-29T04:37:05;4.45;;;4.05;;
30466;SDS011;17258;52.560;13.046;2023-07-29T04:47:05;2.90;;;2.63;;
30466;SDS011;17258;52.560;13.046;2023-07-29T04:57:06;2.20;;;2.10;;
30466;SDS011;17258;52.560;13.046;2023-07-29T05:07:07;2.60;;;2.40;;
30466;SDS011;17258;52.560;13.046;2023-07-29T05:17:07;6.97;;;6.57;;
30466;SDS011;17258;52.560;13.046;2023-07-29T05:27:08;3.73;;;3.43;;
30466;SDS011;17258;52.560;13.046;2023-07-29T05:37:08;11.90;;;11.20;;
30466;SDS011;17258;52.560;13.046;2023-07-29T05:47:10;10.50;;;9.93;;
30466;SDS011;17258;52.560;13.046;2023-07-29T05:57:11;10.20;;;9.60;;
30466;SDS011;17258;52.560;13.046;2023-07-29T06:07:12;12.05;;;11.25;;
30466;SDS011;17258;52.560;13.046;2023-07-29T06:17:12;11.00;;;10.50;;
30466;SDS011;17258;52.560;13.046;2023-07-29T06:27:13;11.87;;;11.17;;
30466;SDS011;17258;52.560;13.046;2023-07-29T06:37:14;12.03;;;11.33;;
30466;SDS011;17258;52.560;13.046;2023-07-29T06:47:14;12.57;;;11.87;;
30466;SDS011;17258;52.560;13.046;2023-07-29T06:57:15;14.33;;;13.43;;
30466;SDS011;17258;52.560;13.046;2023-07-29T07:07:16;13.73;;;12.63;;
30466;SDS011;17258;52.560;13.046;2023-07-29T07:17:16;14.27;;;13.37;;
30466;SDS011;17258;52.560;13.046;2023-07-29T07:27:18;13.00;;;11.77;;
30466;SDS011;17258;52.560;13.046;2023-07-29T07:37:18;14.03;;;13.33;;
30466;SDS011;17258;52.560;13.046;2023-07-29T07:47:19;13.17;;;12.47;;
30466;SDS011;17258;52.560;13.046;2023-07-29T07:57:20;15.27;;;14.47;;
30466;SDS011;17258;52.560;13.046;2023-07-29T08:07:21;15.88;;;15.05;;
30466;SDS011;17258;52.560;13.046;2023-07-29T08:17:22;15.60;;;14.80;;
30466;SDS011;17258;52.560;13.046;2023-07-29T08:27:23;16.50;;;15.50;;
30466;SDS011;17258;52.560;13.046;2023-07-29T08:37:23;16.47;;;15.57;;
30466;SDS011;17258;52.560;13.046;2023-07-29T08:47:24;16.63;;;15.73;;
30466;SDS011;17258;52.560;13.046;2023-07-29T08:57:25;16.40;;;15.40;;
30466;SDS011;17258;52.560;13.046;2023-07-29T09:07:26;17.10;;;16.20;;
30466;SDS011;17258;52.560;13.046;2023-07-29T09:17:30;16.67;;;15.68;;
30466;SDS011;17258;52.560;13.046;2023-07-29T09:27:33;17.38;;;16.33;;
30466;SDS011;17258;52.560;13.046;2023-07-29T09:37:38;17.50;;;16.50;;
30466;SDS011;17258;52.560;13.046;2023-07-29T09:47:39;6.93;;;6.53;;
30466;SDS011;17258;52.560;13.046;2023-07-29T09:57:40;8.07;;;7.67;;
30466;SDS011;17258;52.560;13.046;2023-07-29T10:07:41;2.40;;;2.10;;
30466;SDS011;17258;52.560;13.046;2023-07-29T10:17:42;1.70;;;1.60;;
30466;SDS011;17258;52.560;13.046;2023-07-29T10:27:49;6.90;;;6.50;;
30466;SDS011;17258;52.560;13.046;2023-07-29T10:37:56;1.23;;;1.20;;
30466;SDS011;17258;52.560;13.046;2023-07-29T10:47:57;1.80;;;1.70;;
30466;SDS011;17258;52.560;13.046;2023-07-29T10:58:05;3.10;;;2.90;;
30466;SDS011;17258;52.560;13.046;2023-07-29T11:18:28;5.05;;;2.50;;
30466;SDS011;17258;52.560;13.046;2023-07-29T11:28:37;11.02;;;10.48;;
30466;SDS011;17258;52.560;13.046;2023-07-29T11:38:39;13.15;;;12.52;;
30466;SDS011;17258;52.560;13.046;2023-07-29T11:48:40;13.23;;;12.60;;
30466;SDS011;17258;52.560;13.046;2023-07-29T11:58:45;12.60;;;12.00;;
30466;SDS011;17258;52.560;13.046;2023-07-29T12:08:45;12.13;;;11.52;;
30466;SDS011;17258;52.560;13.046;2023-07-29T12:18:46;11.68;;;11.07;;
30466;SDS011;17258;52.560;13.046;2023-07-29T12:28:48;10.82;;;10.32;;
30466;SDS011;17258;52.560;13.046;2023-07-29T12:38:50;11.02;;;10.52;;
30466;SDS011;17258;52.560;13.046;2023-07-29T12:48:51;12.10;;;11.50;;
30466;SDS011;17258;52.560;13.046;2023-07-29T12:58:51;11.40;;;10.90;;
30466;SDS011;17258;52.560;13.046;2023-07-29T13:08:52;12.65;;;12.05;;
30466;SDS011;17258;52.560;13.046;2023-07-29T13:18:53;13.23;;;12.60;;
30466;SDS011;17258;52.560;13.046;2023-07-29T13:28:54;14.80;;;13.93;;
30466;SDS011;17258;52.560;13.046;2023-07-29T13:38:55;14.80;;;14.00;;
30466;SDS011;17258;52.560;13.046;2023-07-29T13:48:56;16.03;;;15.13;;
30466;SDS011;17258;52.560;13.046;2023-07-29T13:58:57;16.65;;;15.73;;
30466;SDS011;17258;52.560;13.046;2023-07-29T14:08:57;16.27;;;15.30;;
30466;SDS011;17258;52.560;13.046;2023-07-29T14:18:58;16.13;;;15.23;;
30466;SDS011;17258;52.560;13.046;2023-07-29T14:28:59;16.27;;;15.37;;
30466;SDS011;17258;52.560;13.046;2023-07-29T14:38:59;16.37;;;15.40;;
30466;SDS011;17258;52.560;13.046;2023-07-29T14:49:00;3.27;;;3.10;;
30466;SDS011;17258;52.560;13.046;2023-07-29T14:59:01;1.37;;;1.23;;
30466;SDS011;17258;52.560;13.046;2023-07-29T15:09:01;6.83;;;1.60;;
30466;SDS011;17258;52.560;13.046;2023-07-29T15:19:03;3.60;;;1.15;;
30466;SDS011;17258;52.560;13.046;2023-07-29T15:29:04;7.53;;;7.13;;
30466;SDS011;17258;52.560;13.046;2023-07-29T15:39:07;13.98;;;13.23;;
30466;SDS011;17258;52.560;13.046;2023-07-29T15:49:08;12.18;;;11.57;;
30466;SDS011;17258;52.560;13.046;2023-07-29T15:59:10;11.35;;;10.65;;
30466;SDS011;17258;52.560;13.046;2023-07-29T16:09:10;11.15;;;10.60;;
30466;SDS011;17258;52.560;13.046;2023-07-29T16:19:11;11.83;;;11.23;;
30466;SDS011;17258;52.560;13.046;2023-07-29T16:29:12;14.65;;;13.85;;
30466;SDS011;17258;52.560;13.046;2023-07-29T16:39:12;15.90;;;15.00;;
30466;SDS011;17258;52.560;13.046;2023-07-29T16:49:13;15.13;;;14.33;;
30466;SDS011;17258;52.560;13.046;2023-07-29T16:59:14;15.93;;;15.03;;
30466;SDS011;17258;52.560;13.046;2023-07-29T17:09:15;17.35;;;16.35;;
30466;SDS011;17258;52.560;13.046;2023-07-29T17:19:15;20.47;;;18.87;;
30466;SDS011;17258;52.560;13.046;2023-07-29T17:29:16;15.90;;;14.90;;
30466;SDS011;17258;52.560;13.046;2023-07-29T17:39:16;2.63;;;2.10;;
30466;SDS011;17258;52.560;13.046;2023-07-29T17:49:17;9.27;;;8.77;;
30466;SDS011;17258;52.560;13.046;2023-07-29T17:59:18;2.00;;;1.90;;
30466;SDS011;17258;52.560;13.046;2023-07-29T18:09:18;1.57;;;1.47;;
30466;SDS011;17258;52.560;13.046;2023-07-29T18:19:19;2.28;;;1.45;;
30466;SDS011;17258;52.560;13.046;2023-07-29T18:29:21;1.48;;;1.33;;
30466;SDS011;17258;52.560;13.046;2023-07-29T18:39:22;1.30;;;1.20;;
30466;SDS011;17258;52.560;13.046;2023-07-29T18:49:22;1.00;;;1.00;;
30466;SDS011;17258;52.560;13.046;2023-07-29T18:59:23;1.58;;;1.48;;
30466;SDS011;17258;52.560;13.046;2023-07-29T19:09:24;2.77;;;1.70;;
30466;SDS011;17258;52.560;13.046;2023-07-29T19:19:25;1.10;;;1.02;;
30466;SDS011;17258;52.560;13.046;2023-07-29T19:29:26;2.40;;;1.07;;
30466;SDS011;17258;52.560;13.046;2023-07-29T19:39:27;1.77;;;1.08;;
30466;SDS011;17258;52.560;13.046;2023-07-29T19:49:27;1.20;;;1.20;;
30466;SDS011;17258;52.560;13.046;2023-07-29T19:59:28;1.20;;;1.10;;
30466;SDS011;17258;52.560;13.046;2023-07-29T20:09:29;1.30;;;1.15;;
30466;SDS011;17258;52.560;13.046;2023-07-29T20:19:29;1.57;;;1.47;;
30466;SDS011;17258;52.560;13.046;2023-07-29T20:29:30;1.17;;;1.17;;
30466;SDS011;17258;52.560;13.046;2023-07-29T20:39:31;2.13;;;1.30;;
30466;SDS011;17258;52.560;13.046;2023-07-29T20:49:32;2.47;;;1.40;;
30466;SDS011;17258;52.560;13.046;2023-07-29T20:59:33;1.65;;;1.48;;
30466;SDS011;17258;52.560;13.046;2023-07-29T21:09:33;1.92;;;1.65;;
30466;SDS011;17258;52.560;13.046;2023-07-29T21:19:36;2.10;;;1.90;;
30466;SDS011;17258;52.560;13.046;2023-07-29T21:29:36;4.13;;;1.77;;
30466;SDS011;17258;52.560;13.046;2023-07-29T21:39:37;2.33;;;2.00;;
30466;SDS011;17258;52.560;13.046;2023-07-29T21:49:38;5.13;;;1.80;;
30466;SDS011;17258;52.560;13.046;2023-07-29T21:59:38;2.10;;;1.90;;
30466;SDS011;17258;52.560;13.046;2023-07-29T22:09:39;1.80;;;1.70;;
30466;SDS011;17258;52.560;13.046;2023-07-29T22:19:40;1.60;;;1.50;;
30466;SDS011;17258;52.560;13.046;2023-07-29T22:29:41;2.28;;;1.80;;
30466;SDS011;17258;52.560;13.046;2023-07-29T22:39:41;1.52;;;1.42;;
30466;SDS011;17258;52.560;13.046;2023-07-29T22:49:43;1.75;;;1.65;;
30466;SDS011;17258;52.560;13.046;2023-07-29T22:59:43;1.88;;;1.63;;
30466;SDS011;17258;52.560;13.046;2023-07-29T23:09:44;2.63;;;1.10;;
30466;SDS011;17258;52.560;13.046;2023-07-29T23:19:45;1.90;;;1.50;;
30466;SDS011;17258;52.560;13.046;2023-07-29T23:29:46;2.03;;;1.60;;
30466;SDS011;17258;52.560;13.046;2023-07-29T23:39:47;1.43;;;1.33;;
30466;SDS011;17258;52.560;13.046;2023-07-29T23:49:48;2.75;;;1.83;;
30466;SDS011;17258;52.560;13.046;2023-07-29T23:59:50;1.58;;;1.48;;
